Главная страница
METAR-TAF:

METAR-TAF

Аэропорты :

Оулу, Финляндия

широта: 64-56N, долгота: 025-22E, высота над уровнем моря: 12 м

Текущие метеонаблюдения

Эта сводка был подготовлена 26 минут назад, в 14:50 UTC
Ветер 13 Узел от северно-северо-западный
Температура 18°C
Влажность 52%
Давление 1011 hPa
Видимость 10 км и более
Нет облачности ниже 1500 м, и нет кучево-дождевой облачности

METAR: EFOU 221450Z AUTO 34013KT CAVOK 18/08 Q1011

Время: 18:16 (15:16 UTC)

Прогноз

Эта сводка был подготовлена 50 минут назад, в 14:26 UTC
Прогноз действительный с 22-го 15 UTC до 23-го 15 UTC
Ветер 13 Узел от северно-северо-западный
Видимость 10 км и более
Нет облачности ниже 1500 м, и нет кучево-дождевой облачности
изменения
С 22-го 23 UTC до 23-го 01 UTC
Ветер 5 Узел от восточно-северо-восточный

TAF: EFOU 221426Z 2215/2315 34013KT CAVOK BECMG 2223/2301 06005KT

Метеонаблюдения и прогнозы для более 4000 аэропортов (сводки METAR и TAF).

Имеющиеся станции представлены на карте желтыми и красными точками.

Чтобы увидеть название станции, наведите на нее мышь.

Затем щелкните, чтобы увидеть метеонаблюдения и метеопрогнозы.

Управление картой: чтобы увеличить масштаб, щелкните зеленые кнопки с черным крестиком; чтобы уменьшить масштаб, щелкните зеленую кнопку с тире; для просмотра соседних карт щелкайте зеленые стрелки.


METAR-TAF: